sensor_id;sensor_type;location;lat;lon;timestamp;temperature;humidity
36856;DHT22;22788;51.434;6.786;2023-04-03T00:00:04;8.10;99.90
36856;DHT22;22788;51.434;6.786;2023-04-03T00:02:30;8.10;99.90
36856;DHT22;22788;51.434;6.786;2023-04-03T00:04:55;8.10;99.90
36856;DHT22;22788;51.434;6.786;2023-04-03T00:07:21;8.10;99.90
36856;DHT22;22788;51.434;6.786;2023-04-03T00:09:46;8.10;99.90
36856;DHT22;22788;51.434;6.786;2023-04-03T00:12:12;8.10;99.90
36856;DHT22;22788;51.434;6.786;2023-04-03T00:14:38;8.10;99.90
36856;DHT22;22788;51.434;6.786;2023-04-03T00:17:05;8.10;99.90
36856;DHT22;22788;51.434;6.786;2023-04-03T00:19:30;8.10;99.90
36856;DHT22;22788;51.434;6.786;2023-04-03T00:21:56;8.00;99.90
36856;DHT22;22788;51.434;6.786;2023-04-03T00:24:21;8.00;99.90
36856;DHT22;22788;51.434;6.786;2023-04-03T00:26:47;8.00;99.90
36856;DHT22;22788;51.434;6.786;2023-04-03T00:29:13;7.90;99.90
36856;DHT22;22788;51.434;6.786;2023-04-03T00:31:38;7.90;99.90
36856;DHT22;22788;51.434;6.786;2023-04-03T00:34:05;7.90;99.90
36856;DHT22;22788;51.434;6.786;2023-04-03T00:36:31;7.90;99.90
36856;DHT22;22788;51.434;6.786;2023-04-03T00:38:56;7.90;99.90
36856;DHT22;22788;51.434;6.786;2023-04-03T00:41:22;7.90;99.90
36856;DHT22;22788;51.434;6.786;2023-04-03T00:43:48;7.90;99.90
36856;DHT22;22788;51.434;6.786;2023-04-03T00:46:13;7.90;99.90
36856;DHT22;22788;51.434;6.786;2023-04-03T00:48:41;7.90;99.90
36856;DHT22;22788;51.434;6.786;2023-04-03T00:51:12;7.90;99.90
36856;DHT22;22788;51.434;6.786;2023-04-03T00:53:41;7.90;99.90
36856;DHT22;22788;51.434;6.786;2023-04-03T00:56:10;7.90;99.90
36856;DHT22;22788;51.434;6.786;2023-04-03T00:58:39;7.90;99.90
36856;DHT22;22788;51.434;6.786;2023-04-03T01:01:08;7.90;99.90
36856;DHT22;22788;51.434;6.786;2023-04-03T01:03:36;7.90;99.90
36856;DHT22;22788;51.434;6.786;2023-04-03T01:06:02;7.80;99.90
36856;DHT22;22788;51.434;6.786;2023-04-03T01:08:30;7.80;99.90
36856;DHT22;22788;51.434;6.786;2023-04-03T01:10:56;7.80;99.90
36856;DHT22;22788;51.434;6.786;2023-04-03T01:13:25;7.80;99.90
36856;DHT22;22788;51.434;6.786;2023-04-03T01:15:51;7.80;99.90
36856;DHT22;22788;51.434;6.786;2023-04-03T01:18:17;7.80;99.90
36856;DHT22;22788;51.434;6.786;2023-04-03T01:21:14;7.80;99.90
36856;DHT22;22788;51.434;6.786;2023-04-03T01:23:57;7.70;99.90
36856;DHT22;22788;51.434;6.786;2023-04-03T01:26:24;7.80;99.90
36856;DHT22;22788;51.434;6.786;2023-04-03T01:28:50;7.70;99.90
36856;DHT22;22788;51.434;6.786;2023-04-03T01:31:20;7.70;99.90
36856;DHT22;22788;51.434;6.786;2023-04-03T01:33:49;7.70;99.90
36856;DHT22;22788;51.434;6.786;2023-04-03T01:36:17;7.70;99.90
36856;DHT22;22788;51.434;6.786;2023-04-03T01:38:43;7.70;99.90
36856;DHT22;22788;51.434;6.786;2023-04-03T01:41:09;7.70;99.90
36856;DHT22;22788;51.434;6.786;2023-04-03T01:43:34;7.70;99.90
36856;DHT22;22788;51.434;6.786;2023-04-03T01:46:00;7.70;99.90
36856;DHT22;22788;51.434;6.786;2023-04-03T01:48:26;7.70;99.90
36856;DHT22;22788;51.434;6.786;2023-04-03T01:50:53;7.80;99.90
36856;DHT22;22788;51.434;6.786;2023-04-03T01:53:19;7.70;99.90
36856;DHT22;22788;51.434;6.786;2023-04-03T01:55:44;7.70;99.90
36856;DHT22;22788;51.434;6.786;2023-04-03T01:58:10;7.60;99.90
36856;DHT22;22788;51.434;6.786;2023-04-03T02:00:36;7.50;99.90
36856;DHT22;22788;51.434;6.786;2023-04-03T02:03:02;7.40;99.90
36856;DHT22;22788;51.434;6.786;2023-04-03T02:05:27;7.10;99.90
36856;DHT22;22788;51.434;6.786;2023-04-03T02:07:54;7.20;99.90
36856;DHT22;22788;51.434;6.786;2023-04-03T02:10:20;7.30;99.90
36856;DHT22;22788;51.434;6.786;2023-04-03T02:12:46;7.20;99.90
36856;DHT22;22788;51.434;6.786;2023-04-03T02:15:11;7.40;99.90
36856;DHT22;22788;51.434;6.786;2023-04-03T02:17:37;7.40;99.90
36856;DHT22;22788;51.434;6.786;2023-04-03T02:20:03;7.30;99.90
36856;DHT22;22788;51.434;6.786;2023-04-03T02:22:28;7.30;99.90
36856;DHT22;22788;51.434;6.786;2023-04-03T02:24:55;7.10;99.90
36856;DHT22;22788;51.434;6.786;2023-04-03T02:27:21;7.20;99.90
36856;DHT22;22788;51.434;6.786;2023-04-03T02:29:47;7.20;99.90
36856;DHT22;22788;51.434;6.786;2023-04-03T02:32:12;7.20;99.90
36856;DHT22;22788;51.434;6.786;2023-04-03T02:34:38;7.20;99.90
36856;DHT22;22788;51.434;6.786;2023-04-03T02:37:03;7.30;99.90
36856;DHT22;22788;51.434;6.786;2023-04-03T02:39:29;7.30;99.90
36856;DHT22;22788;51.434;6.786;2023-04-03T02:41:56;7.10;99.90
36856;DHT22;22788;51.434;6.786;2023-04-03T02:44:22;7.10;99.90
36856;DHT22;22788;51.434;6.786;2023-04-03T02:46:47;7.20;99.90
36856;DHT22;22788;51.434;6.786;2023-04-03T02:49:13;7.20;99.90
36856;DHT22;22788;51.434;6.786;2023-04-03T02:51:38;7.30;99.90
36856;DHT22;22788;51.434;6.786;2023-04-03T02:54:04;7.20;99.90
36856;DHT22;22788;51.434;6.786;2023-04-03T02:56:30;7.20;99.90
36856;DHT22;22788;51.434;6.786;2023-04-03T02:58:57;7.10;99.90
36856;DHT22;22788;51.434;6.786;2023-04-03T03:01:22;7.10;99.90
36856;DHT22;22788;51.434;6.786;2023-04-03T03:03:48;7.20;99.90
36856;DHT22;22788;51.434;6.786;2023-04-03T03:06:15;7.20;99.90
36856;DHT22;22788;51.434;6.786;2023-04-03T03:08:41;7.10;99.90
36856;DHT22;22788;51.434;6.786;2023-04-03T03:11:08;7.10;99.90
36856;DHT22;22788;51.434;6.786;2023-04-03T03:13:34;7.20;99.90
36856;DHT22;22788;51.434;6.786;2023-04-03T03:16:02;7.10;99.90
36856;DHT22;22788;51.434;6.786;2023-04-03T03:18:28;7.20;99.90
36856;DHT22;22788;51.434;6.786;2023-04-03T03:20:55;7.20;99.90
36856;DHT22;22788;51.434;6.786;2023-04-03T03:23:22;7.20;99.90
36856;DHT22;22788;51.434;6.786;2023-04-03T03:25:48;7.10;99.90
36856;DHT22;22788;51.434;6.786;2023-04-03T03:28:14;7.10;99.90
36856;DHT22;22788;51.434;6.786;2023-04-03T03:30:39;7.00;99.90
36856;DHT22;22788;51.434;6.786;2023-04-03T03:33:06;7.00;99.90
36856;DHT22;22788;51.434;6.786;2023-04-03T03:35:32;7.00;99.90
36856;DHT22;22788;51.434;6.786;2023-04-03T03:37:58;7.20;99.90
36856;DHT22;22788;51.434;6.786;2023-04-03T03:40:23;7.10;99.90
36856;DHT22;22788;51.434;6.786;2023-04-03T03:42:49;7.10;99.90
36856;DHT22;22788;51.434;6.786;2023-04-03T03:45:15;7.10;99.90
36856;DHT22;22788;51.434;6.786;2023-04-03T03:47:40;7.00;99.90
36856;DHT22;22788;51.434;6.786;2023-04-03T03:50:09;6.90;99.90
36856;DHT22;22788;51.434;6.786;2023-04-03T03:52:34;7.00;99.90
36856;DHT22;22788;51.434;6.786;2023-04-03T03:55:00;7.10;99.90
36856;DHT22;22788;51.434;6.786;2023-04-03T03:57:25;7.00;99.90
36856;DHT22;22788;51.434;6.786;2023-04-03T03:59:51;7.00;99.90
36856;DHT22;22788;51.434;6.786;2023-04-03T04:02:16;6.80;99.90
36856;DHT22;22788;51.434;6.786;2023-04-03T04:04:42;6.70;99.90
36856;DHT22;22788;51.434;6.786;2023-04-03T04:07:09;6.90;99.90
36856;DHT22;22788;51.434;6.786;2023-04-03T04:09:35;6.80;99.90
36856;DHT22;22788;51.434;6.786;2023-04-03T04:12:00;6.90;99.90
36856;DHT22;22788;51.434;6.786;2023-04-03T04:14:26;6.90;99.90
36856;DHT22;22788;51.434;6.786;2023-04-03T04:16:52;6.80;99.90
36856;DHT22;22788;51.434;6.786;2023-04-03T04:19:17;6.80;99.90
36856;DHT22;22788;51.434;6.786;2023-04-03T04:21:43;6.90;99.90
36856;DHT22;22788;51.434;6.786;2023-04-03T04:24:10;7.00;99.90
36856;DHT22;22788;51.434;6.786;2023-04-03T04:26:36;7.00;99.90
36856;DHT22;22788;51.434;6.786;2023-04-03T04:29:01;6.90;99.90
36856;DHT22;22788;51.434;6.786;2023-04-03T04:31:27;6.70;99.90
36856;DHT22;22788;51.434;6.786;2023-04-03T04:33:53;6.60;99.90
36856;DHT22;22788;51.434;6.786;2023-04-03T04:36:18;6.60;99.90
36856;DHT22;22788;51.434;6.786;2023-04-03T04:38:44;6.70;99.90
36856;DHT22;22788;51.434;6.786;2023-04-03T04:41:11;6.70;99.90
36856;DHT22;22788;51.434;6.786;2023-04-03T04:43:37;6.80;99.90
36856;DHT22;22788;51.434;6.786;2023-04-03T04:46:05;6.80;99.90
36856;DHT22;22788;51.434;6.786;2023-04-03T04:48:31;6.70;99.90
36856;DHT22;22788;51.434;6.786;2023-04-03T04:50:56;6.80;99.90
36856;DHT22;22788;51.434;6.786;2023-04-03T04:53:22;6.90;99.90
36856;DHT22;22788;51.434;6.786;2023-04-03T04:55:48;6.90;99.90
36856;DHT22;22788;51.434;6.786;2023-04-03T04:58:15;6.90;99.90
36856;DHT22;22788;51.434;6.786;2023-04-03T05:00:40;7.00;99.90
36856;DHT22;22788;51.434;6.786;2023-04-03T05:03:06;7.00;99.90
36856;DHT22;22788;51.434;6.786;2023-04-03T05:05:31;7.00;99.90
36856;DHT22;22788;51.434;6.786;2023-04-03T05:07:57;6.90;99.90
36856;DHT22;22788;51.434;6.786;2023-04-03T05:10:23;6.90;99.90
36856;DHT22;22788;51.434;6.786;2023-04-03T05:12:48;6.90;99.90
36856;DHT22;22788;51.434;6.786;2023-04-03T05:15:15;6.90;99.90
36856;DHT22;22788;51.434;6.786;2023-04-03T05:17:41;7.00;99.90
36856;DHT22;22788;51.434;6.786;2023-04-03T05:20:07;6.90;99.90
36856;DHT22;22788;51.434;6.786;2023-04-03T05:22:33;6.80;99.90
36856;DHT22;22788;51.434;6.786;2023-04-03T05:24:58;6.90;99.90
36856;DHT22;22788;51.434;6.786;2023-04-03T05:27:24;7.00;99.90
36856;DHT22;22788;51.434;6.786;2023-04-03T05:29:50;7.10;99.90
36856;DHT22;22788;51.434;6.786;2023-04-03T05:32:17;7.00;99.90
36856;DHT22;22788;51.434;6.786;2023-04-03T05:34:42;6.80;99.90
36856;DHT22;22788;51.434;6.786;2023-04-03T05:37:08;6.80;99.90
36856;DHT22;22788;51.434;6.786;2023-04-03T05:39:33;6.70;99.90
36856;DHT22;22788;51.434;6.786;2023-04-03T05:41:59;6.70;99.90
36856;DHT22;22788;51.434;6.786;2023-04-03T05:44:25;6.60;99.90
36856;DHT22;22788;51.434;6.786;2023-04-03T05:46:51;6.60;99.90
36856;DHT22;22788;51.434;6.786;2023-04-03T05:49:18;6.50;99.90
36856;DHT22;22788;51.434;6.786;2023-04-03T05:51:43;6.70;99.90
36856;DHT22;22788;51.434;6.786;2023-04-03T05:54:13;6.70;99.90
36856;DHT22;22788;51.434;6.786;2023-04-03T05:56:41;6.60;99.90
36856;DHT22;22788;51.434;6.786;2023-04-03T05:59:07;6.50;99.90
36856;DHT22;22788;51.434;6.786;2023-04-03T06:01:32;6.60;99.90
36856;DHT22;22788;51.434;6.786;2023-04-03T06:03:58;6.60;99.90
36856;DHT22;22788;51.434;6.786;2023-04-03T06:06:25;6.70;99.90
36856;DHT22;22788;51.434;6.786;2023-04-03T06:08:51;6.70;99.90
36856;DHT22;22788;51.434;6.786;2023-04-03T06:11:17;6.70;99.90
36856;DHT22;22788;51.434;6.786;2023-04-03T06:13:42;6.80;99.90
36856;DHT22;22788;51.434;6.786;2023-04-03T06:16:09;6.70;99.90
36856;DHT22;22788;51.434;6.786;2023-04-03T06:18:34;6.70;99.90
36856;DHT22;22788;51.434;6.786;2023-04-03T06:21:00;6.50;99.90
36856;DHT22;22788;51.434;6.786;2023-04-03T06:23:27;6.70;99.90
36856;DHT22;22788;51.434;6.786;2023-04-03T06:25:53;6.60;99.90
36856;DHT22;22788;51.434;6.786;2023-04-03T06:28:18;6.50;99.90
36856;DHT22;22788;51.434;6.786;2023-04-03T06:30:44;6.50;99.90
36856;DHT22;22788;51.434;6.786;2023-04-03T06:33:09;6.50;99.90
36856;DHT22;22788;51.434;6.786;2023-04-03T06:35:35;6.30;99.90
36856;DHT22;22788;51.434;6.786;2023-04-03T06:38:01;6.40;99.90
36856;DHT22;22788;51.434;6.786;2023-04-03T06:40:28;6.40;99.90
36856;DHT22;22788;51.434;6.786;2023-04-03T06:42:53;6.40;99.90
36856;DHT22;22788;51.434;6.786;2023-04-03T06:45:19;6.40;99.90
36856;DHT22;22788;51.434;6.786;2023-04-03T06:47:44;6.50;99.90
36856;DHT22;22788;51.434;6.786;2023-04-03T06:50:11;6.40;99.90
36856;DHT22;22788;51.434;6.786;2023-04-03T06:52:37;6.40;99.90
36856;DHT22;22788;51.434;6.786;2023-04-03T06:55:03;6.40;99.90
36856;DHT22;22788;51.434;6.786;2023-04-03T06:57:30;6.50;99.90
36856;DHT22;22788;51.434;6.786;2023-04-03T06:59:55;6.40;99.90
36856;DHT22;22788;51.434;6.786;2023-04-03T07:02:21;6.40;99.90
36856;DHT22;22788;51.434;6.786;2023-04-03T07:04:47;6.60;99.90
36856;DHT22;22788;51.434;6.786;2023-04-03T07:07:13;6.70;99.90
36856;DHT22;22788;51.434;6.786;2023-04-03T07:09:38;6.50;99.90
36856;DHT22;22788;51.434;6.786;2023-04-03T07:12:04;6.40;99.90
36856;DHT22;22788;51.434;6.786;2023-04-03T07:14:31;6.60;99.90
36856;DHT22;22788;51.434;6.786;2023-04-03T07:16:57;6.40;99.90
36856;DHT22;22788;51.434;6.786;2023-04-03T07:19:22;6.40;99.90
36856;DHT22;22788;51.434;6.786;2023-04-03T07:21:48;6.20;99.90
36856;DHT22;22788;51.434;6.786;2023-04-03T07:24:13;6.50;99.90
36856;DHT22;22788;51.434;6.786;2023-04-03T07:26:39;6.50;99.90
36856;DHT22;22788;51.434;6.786;2023-04-03T07:29:05;6.40;99.90
36856;DHT22;22788;51.434;6.786;2023-04-03T07:31:32;6.40;99.90
36856;DHT22;22788;51.434;6.786;2023-04-03T07:33:57;6.40;99.90
36856;DHT22;22788;51.434;6.786;2023-04-03T07:36:23;6.40;99.90
36856;DHT22;22788;51.434;6.786;2023-04-03T07:38:49;6.60;99.90
36856;DHT22;22788;51.434;6.786;2023-04-03T07:41:16;6.40;99.90
36856;DHT22;22788;51.434;6.786;2023-04-03T07:43:42;6.50;99.90
36856;DHT22;22788;51.434;6.786;2023-04-03T07:46:08;6.70;99.90
36856;DHT22;22788;51.434;6.786;2023-04-03T07:48:35;6.60;99.90
36856;DHT22;22788;51.434;6.786;2023-04-03T07:51:02;6.60;99.90
36856;DHT22;22788;51.434;6.786;2023-04-03T07:53:28;6.50;99.90
36856;DHT22;22788;51.434;6.786;2023-04-03T07:55:54;6.60;99.90
36856;DHT22;22788;51.434;6.786;2023-04-03T07:58:19;6.60;99.90
36856;DHT22;22788;51.434;6.786;2023-04-03T08:00:45;6.20;99.90
36856;DHT22;22788;51.434;6.786;2023-04-03T08:03:11;6.40;99.90
36856;DHT22;22788;51.434;6.786;2023-04-03T08:05:40;6.40;99.90
36856;DHT22;22788;51.434;6.786;2023-04-03T08:08:06;6.50;99.90
36856;DHT22;22788;51.434;6.786;2023-04-03T08:10:33;6.50;99.90
36856;DHT22;22788;51.434;6.786;2023-04-03T08:12:59;6.50;99.90
36856;DHT22;22788;51.434;6.786;2023-04-03T08:15:24;6.50;99.90
36856;DHT22;22788;51.434;6.786;2023-04-03T08:17:50;6.50;99.90
36856;DHT22;22788;51.434;6.786;2023-04-03T08:20:16;6.60;99.90
36856;DHT22;22788;51.434;6.786;2023-04-03T08:22:43;6.60;99.90
36856;DHT22;22788;51.434;6.786;2023-04-03T08:25:09;6.70;99.90
36856;DHT22;22788;51.434;6.786;2023-04-03T08:27:35;6.70;99.90
36856;DHT22;22788;51.434;6.786;2023-04-03T08:30:01;6.70;99.90
36856;DHT22;22788;51.434;6.786;2023-04-03T08:32:26;6.60;99.90
36856;DHT22;22788;51.434;6.786;2023-04-03T08:34:52;6.70;99.90
36856;DHT22;22788;51.434;6.786;2023-04-03T08:37:18;6.80;99.90
36856;DHT22;22788;51.434;6.786;2023-04-03T08:39:45;6.70;99.90
36856;DHT22;22788;51.434;6.786;2023-04-03T08:42:16;6.80;99.90
36856;DHT22;22788;51.434;6.786;2023-04-03T08:44:49;6.70;99.90
36856;DHT22;22788;51.434;6.786;2023-04-03T08:47:22;6.60;99.90
36856;DHT22;22788;51.434;6.786;2023-04-03T08:49:50;6.70;99.90
36856;DHT22;22788;51.434;6.786;2023-04-03T08:52:20;6.70;99.90
36856;DHT22;22788;51.434;6.786;2023-04-03T08:54:51;6.70;99.90
36856;DHT22;22788;51.434;6.786;2023-04-03T08:57:29;6.70;99.90
36856;DHT22;22788;51.434;6.786;2023-04-03T08:59:56;6.70;99.90
36856;DHT22;22788;51.434;6.786;2023-04-03T09:02:28;6.90;99.90
36856;DHT22;22788;51.434;6.786;2023-04-03T09:04:54;6.90;99.90
36856;DHT22;22788;51.434;6.786;2023-04-03T09:07:25;6.90;99.90
36856;DHT22;22788;51.434;6.786;2023-04-03T09:09:59;6.80;99.90
36856;DHT22;22788;51.434;6.786;2023-04-03T09:12:27;6.70;99.90
36856;DHT22;22788;51.434;6.786;2023-04-03T09:15:01;6.80;99.90
36856;DHT22;22788;51.434;6.786;2023-04-03T09:17:37;6.80;99.90
36856;DHT22;22788;51.434;6.786;2023-04-03T09:20:14;7.00;99.90
36856;DHT22;22788;51.434;6.786;2023-04-03T09:22:44;6.90;99.90
36856;DHT22;22788;51.434;6.786;2023-04-03T09:25:14;6.90;99.90
36856;DHT22;22788;51.434;6.786;2023-04-03T09:27:40;6.90;99.90
36856;DHT22;22788;51.434;6.786;2023-04-03T09:30:08;6.80;99.50
36856;DHT22;22788;51.434;6.786;2023-04-03T09:32:37;7.00;99.90
36856;DHT22;22788;51.434;6.786;2023-04-03T09:35:06;7.00;99.90
36856;DHT22;22788;51.434;6.786;2023-04-03T09:37:39;7.10;99.90
36856;DHT22;22788;51.434;6.786;2023-04-03T09:40:05;7.20;98.30
36856;DHT22;22788;51.434;6.786;2023-04-03T09:42:33;7.20;97.70
36856;DHT22;22788;51.434;6.786;2023-04-03T09:45:18;7.20;99.90
36856;DHT22;22788;51.434;6.786;2023-04-03T09:47:47;7.10;99.90
36856;DHT22;22788;51.434;6.786;2023-04-03T09:50:21;7.20;99.90
36856;DHT22;22788;51.434;6.786;2023-04-03T09:52:49;7.20;99.90
36856;DHT22;22788;51.434;6.786;2023-04-03T09:55:16;7.20;99.90
36856;DHT22;22788;51.434;6.786;2023-04-03T09:57:43;7.20;97.80
36856;DHT22;22788;51.434;6.786;2023-04-03T10:00:21;7.10;99.90
36856;DHT22;22788;51.434;6.786;2023-04-03T10:02:50;7.30;99.90
36856;DHT22;22788;51.434;6.786;2023-04-03T10:05:27;7.40;99.90
36856;DHT22;22788;51.434;6.786;2023-04-03T10:08:08;7.30;98.70
36856;DHT22;22788;51.434;6.786;2023-04-03T10:10:34;7.30;99.90
36856;DHT22;22788;51.434;6.786;2023-04-03T10:13:10;7.40;88.10
36856;DHT22;22788;51.434;6.786;2023-04-03T10:15:39;7.40;95.70
36856;DHT22;22788;51.434;6.786;2023-04-03T10:18:20;7.30;99.90
36856;DHT22;22788;51.434;6.786;2023-04-03T10:20:51;7.40;99.90
36856;DHT22;22788;51.434;6.786;2023-04-03T10:23:21;7.60;99.30
36856;DHT22;22788;51.434;6.786;2023-04-03T10:25:55;7.50;94.70
36856;DHT22;22788;51.434;6.786;2023-04-03T10:28:32;7.50;98.20
36856;DHT22;22788;51.434;6.786;2023-04-03T10:31:05;7.50;92.10
36856;DHT22;22788;51.434;6.786;2023-04-03T10:33:43;7.50;94.80
36856;DHT22;22788;51.434;6.786;2023-04-03T10:36:17;7.50;99.90
36856;DHT22;22788;51.434;6.786;2023-04-03T10:38:53;7.50;99.90
36856;DHT22;22788;51.434;6.786;2023-04-03T10:41:25;7.60;99.90
36856;DHT22;22788;51.434;6.786;2023-04-03T10:44:06;7.60;99.90
36856;DHT22;22788;51.434;6.786;2023-04-03T10:46:37;7.60;99.40
36856;DHT22;22788;51.434;6.786;2023-04-03T10:49:18;7.70;99.90
36856;DHT22;22788;51.434;6.786;2023-04-03T10:51:48;7.60;99.30
36856;DHT22;22788;51.434;6.786;2023-04-03T10:54:22;7.60;94.70
36856;DHT22;22788;51.434;6.786;2023-04-03T10:56:52;7.60;99.50
36856;DHT22;22788;51.434;6.786;2023-04-03T10:59:25;7.70;98.80
36856;DHT22;22788;51.434;6.786;2023-04-03T11:01:55;7.80;94.20
36856;DHT22;22788;51.434;6.786;2023-04-03T11:04:22;7.80;99.90
36856;DHT22;22788;51.434;6.786;2023-04-03T11:06:53;7.90;99.90
36856;DHT22;22788;51.434;6.786;2023-04-03T11:09:25;7.90;99.90
36856;DHT22;22788;51.434;6.786;2023-04-03T11:11:55;7.80;99.90
36856;DHT22;22788;51.434;6.786;2023-04-03T11:14:26;7.80;99.40
36856;DHT22;22788;51.434;6.786;2023-04-03T11:17:01;7.90;99.90
36856;DHT22;22788;51.434;6.786;2023-04-03T11:19:34;7.90;99.80
36856;DHT22;22788;51.434;6.786;2023-04-03T11:22:04;7.90;99.90
36856;DHT22;22788;51.434;6.786;2023-04-03T11:24:34;7.90;99.90
36856;DHT22;22788;51.434;6.786;2023-04-03T11:27:02;7.90;99.90
36856;DHT22;22788;51.434;6.786;2023-04-03T11:29:34;7.90;93.30
36856;DHT22;22788;51.434;6.786;2023-04-03T11:32:13;8.00;99.60
36856;DHT22;22788;51.434;6.786;2023-04-03T11:34:44;8.00;99.90
36856;DHT22;22788;51.434;6.786;2023-04-03T11:37:15;7.90;96.00
36856;DHT22;22788;51.434;6.786;2023-04-03T11:39:53;8.00;99.40
36856;DHT22;22788;51.434;6.786;2023-04-03T11:42:33;8.00;98.60
36856;DHT22;22788;51.434;6.786;2023-04-03T11:45:34;8.10;99.90
36856;DHT22;22788;51.434;6.786;2023-04-03T11:48:01;8.00;98.60
36856;DHT22;22788;51.434;6.786;2023-04-03T11:50:44;8.00;99.90
36856;DHT22;22788;51.434;6.786;2023-04-03T11:53:31;8.00;99.90
36856;DHT22;22788;51.434;6.786;2023-04-03T12:01:48;8.10;98.10
36856;DHT22;22788;51.434;6.786;2023-04-03T12:04:16;8.10;99.30
36856;DHT22;22788;51.434;6.786;2023-04-03T12:10:16;8.20;99.90
36856;DHT22;22788;51.434;6.786;2023-04-03T12:12:42;8.20;95.50
36856;DHT22;22788;51.434;6.786;2023-04-03T12:18:46;8.20;99.90
36856;DHT22;22788;51.434;6.786;2023-04-03T12:21:20;8.20;99.60
36856;DHT22;22788;51.434;6.786;2023-04-03T12:24:04;8.20;99.90
36856;DHT22;22788;51.434;6.786;2023-04-03T12:26:34;8.30;97.40
36856;DHT22;22788;51.434;6.786;2023-04-03T12:29:10;8.30;99.90
36856;DHT22;22788;51.434;6.786;2023-04-03T12:31:45;8.20;99.90
36856;DHT22;22788;51.434;6.786;2023-04-03T12:34:24;8.30;99.60
36856;DHT22;22788;51.434;6.786;2023-04-03T12:37:02;8.30;96.40
36856;DHT22;22788;51.434;6.786;2023-04-03T12:39:48;8.30;99.30
36856;DHT22;22788;51.434;6.786;2023-04-03T12:42:24;8.40;99.90
36856;DHT22;22788;51.434;6.786;2023-04-03T12:44:56;8.30;99.90
36856;DHT22;22788;51.434;6.786;2023-04-03T12:47:27;8.30;99.50
36856;DHT22;22788;51.434;6.786;2023-04-03T12:49:55;8.40;97.20
36856;DHT22;22788;51.434;6.786;2023-04-03T12:52:32;8.40;99.50
36856;DHT22;22788;51.434;6.786;2023-04-03T12:55:00;8.40;99.20
36856;DHT22;22788;51.434;6.786;2023-04-03T12:57:26;8.40;99.90
36856;DHT22;22788;51.434;6.786;2023-04-03T12:59:52;8.40;97.90
36856;DHT22;22788;51.434;6.786;2023-04-03T13:02:24;8.40;99.90
36856;DHT22;22788;51.434;6.786;2023-04-03T13:04:50;8.40;99.90
36856;DHT22;22788;51.434;6.786;2023-04-03T13:07:22;8.40;99.90
36856;DHT22;22788;51.434;6.786;2023-04-03T13:09:55;8.50;93.90
36856;DHT22;22788;51.434;6.786;2023-04-03T13:12:21;8.50;97.30
36856;DHT22;22788;51.434;6.786;2023-04-03T13:14:52;8.60;97.50
36856;DHT22;22788;51.434;6.786;2023-04-03T13:17:18;8.60;96.30
36856;DHT22;22788;51.434;6.786;2023-04-03T13:19:44;8.60;94.40
36856;DHT22;22788;51.434;6.786;2023-04-03T13:22:24;8.50;97.70
36856;DHT22;22788;51.434;6.786;2023-04-03T13:24:53;8.50;97.20
36856;DHT22;22788;51.434;6.786;2023-04-03T13:27:20;8.60;96.10
36856;DHT22;22788;51.434;6.786;2023-04-03T13:29:50;8.60;99.60
36856;DHT22;22788;51.434;6.786;2023-04-03T13:32:18;8.50;95.10
36856;DHT22;22788;51.434;6.786;2023-04-03T13:34:44;8.50;99.80
36856;DHT22;22788;51.434;6.786;2023-04-03T13:37:21;8.60;94.30
36856;DHT22;22788;51.434;6.786;2023-04-03T13:39:57;8.50;99.30
36856;DHT22;22788;51.434;6.786;2023-04-03T13:42:25;8.60;97.50
36856;DHT22;22788;51.434;6.786;2023-04-03T13:45:11;8.60;98.00
36856;DHT22;22788;51.434;6.786;2023-04-03T13:47:43;8.70;96.20
36856;DHT22;22788;51.434;6.786;2023-04-03T13:50:16;8.70;99.00
36856;DHT22;22788;51.434;6.786;2023-04-03T13:52:43;8.60;99.00
36856;DHT22;22788;51.434;6.786;2023-04-03T13:55:22;8.70;99.20
36856;DHT22;22788;51.434;6.786;2023-04-03T13:57:54;8.70;91.30
36856;DHT22;22788;51.434;6.786;2023-04-03T14:00:28;8.80;81.00
36856;DHT22;22788;51.434;6.786;2023-04-03T14:02:55;8.80;99.30
36856;DHT22;22788;51.434;6.786;2023-04-03T14:05:21;8.70;98.50
36856;DHT22;22788;51.434;6.786;2023-04-03T14:07:46;8.70;97.60
36856;DHT22;22788;51.434;6.786;2023-04-03T14:10:12;8.70;95.80
36856;DHT22;22788;51.434;6.786;2023-04-03T14:12:40;8.70;99.80
36856;DHT22;22788;51.434;6.786;2023-04-03T14:15:16;8.70;99.90
36856;DHT22;22788;51.434;6.786;2023-04-03T14:17:42;8.80;98.70
36856;DHT22;22788;51.434;6.786;2023-04-03T14:20:14;8.80;95.00
36856;DHT22;22788;51.434;6.786;2023-04-03T14:22:39;8.90;98.80
36856;DHT22;22788;51.434;6.786;2023-04-03T14:25:06;8.90;97.90
36856;DHT22;22788;51.434;6.786;2023-04-03T14:27:35;8.80;97.00
36856;DHT22;22788;51.434;6.786;2023-04-03T14:30:05;8.90;98.20
36856;DHT22;22788;51.434;6.786;2023-04-03T14:32:32;8.90;97.30
36856;DHT22;22788;51.434;6.786;2023-04-03T14:34:58;9.00;94.20
36856;DHT22;22788;51.434;6.786;2023-04-03T14:37:26;9.00;93.40
36856;DHT22;22788;51.434;6.786;2023-04-03T14:39:52;8.90;91.90
36856;DHT22;22788;51.434;6.786;2023-04-03T14:42:21;8.90;98.60
36856;DHT22;22788;51.434;6.786;2023-04-03T14:44:47;8.80;98.30
36856;DHT22;22788;51.434;6.786;2023-04-03T14:47:16;8.80;97.80
36856;DHT22;22788;51.434;6.786;2023-04-03T14:49:42;8.90;99.20
36856;DHT22;22788;51.434;6.786;2023-04-03T14:52:17;9.00;97.60
36856;DHT22;22788;51.434;6.786;2023-04-03T14:54:44;8.90;97.40
36856;DHT22;22788;51.434;6.786;2023-04-03T14:57:12;8.90;94.70
36856;DHT22;22788;51.434;6.786;2023-04-03T14:59:38;8.90;96.60
36856;DHT22;22788;51.434;6.786;2023-04-03T15:02:20;8.90;99.30
36856;DHT22;22788;51.434;6.786;2023-04-03T15:04:47;8.90;97.40
36856;DHT22;22788;51.434;6.786;2023-04-03T15:07:13;8.90;98.20
36856;DHT22;22788;51.434;6.786;2023-04-03T15:09:38;8.90;99.10
36856;DHT22;22788;51.434;6.786;2023-04-03T15:12:04;8.90;91.20
36856;DHT22;22788;51.434;6.786;2023-04-03T15:14:30;8.80;98.00
36856;DHT22;22788;51.434;6.786;2023-04-03T15:16:55;8.70;97.90
36856;DHT22;22788;51.434;6.786;2023-04-03T15:19:23;8.80;93.80
36856;DHT22;22788;51.434;6.786;2023-04-03T15:21:49;8.70;99.70
36856;DHT22;22788;51.434;6.786;2023-04-03T15:24:14;8.80;98.40
36856;DHT22;22788;51.434;6.786;2023-04-03T15:26:40;8.80;92.20
36856;DHT22;22788;51.434;6.786;2023-04-03T15:29:05;8.80;96.00
36856;DHT22;22788;51.434;6.786;2023-04-03T15:31:32;8.70;98.90
36856;DHT22;22788;51.434;6.786;2023-04-03T15:33:57;8.70;97.20
36856;DHT22;22788;51.434;6.786;2023-04-03T15:36:24;8.70;97.80
36856;DHT22;22788;51.434;6.786;2023-04-03T15:38:50;8.70;96.60
36856;DHT22;22788;51.434;6.786;2023-04-03T15:41:16;8.70;97.10
36856;DHT22;22788;51.434;6.786;2023-04-03T15:43:42;8.70;98.00
36856;DHT22;22788;51.434;6.786;2023-04-03T15:46:07;8.70;94.40
36856;DHT22;22788;51.434;6.786;2023-04-03T15:48:33;8.80;98.40
36856;DHT22;22788;51.434;6.786;2023-04-03T15:51:00;8.70;98.20
36856;DHT22;22788;51.434;6.786;2023-04-03T15:53:27;8.80;97.60
36856;DHT22;22788;51.434;6.786;2023-04-03T15:55:52;8.80;95.20
36856;DHT22;22788;51.434;6.786;2023-04-03T15:58:18;8.80;99.90
36856;DHT22;22788;51.434;6.786;2023-04-03T16:00:44;8.80;98.00
36856;DHT22;22788;51.434;6.786;2023-04-03T16:03:12;8.80;99.90